createdAt,value
2019-01-05T00:00:10.357Z,98960.89
2019-01-05T00:02:59.010Z,98960.89
2019-01-05T00:05:47.403Z,98948.12
2019-01-05T00:08:35.660Z,98943.50
2019-01-05T00:11:24.395Z,98946.20
2019-01-05T00:14:12.746Z,98946.20
2019-01-05T00:16:59.482Z,98950.34
2019-01-05T00:19:47.964Z,98965.94
2019-01-05T00:22:36.573Z,98949.97
2019-01-05T00:25:24.994Z,98943.97
2019-01-05T00:28:13.274Z,98934.59
2019-01-05T00:31:02.334Z,98934.59
2019-01-05T00:33:51.683Z,98922.96
2019-01-05T00:36:41.470Z,98929.82
2019-01-05T00:39:30.244Z,98930.73
2019-01-05T00:42:18.454Z,98930.73
2019-01-05T00:45:07.112Z,98938.53
2019-01-05T00:47:55.465Z,98938.41
2019-01-05T00:50:45.005Z,98932.25
2019-01-05T00:53:31.273Z,98932.25
2019-01-05T00:56:20.097Z,98942.88
2019-01-05T00:59:09.178Z,98933.53
2019-01-05T01:01:58.991Z,98933.53
2019-01-05T01:04:47.576Z,98941.23
2019-01-05T01:07:36.354Z,98936.64
2019-01-05T01:10:24.984Z,98940.55
2019-01-05T01:13:12.663Z,98940.55
2019-01-05T01:15:56.682Z,98938.06
2019-01-05T01:18:45.620Z,98929.53
2019-01-05T01:21:28.236Z,98935.65
2019-01-05T01:24:17.194Z,98929.16
2019-01-05T01:26:57.879Z,98927.75
2019-01-05T01:29:45.022Z,98925.70
2019-01-05T01:32:29.313Z,98930.86
2019-01-05T01:35:12.080Z,98932.67
2019-01-05T01:38:30.937Z,98933.27
2019-01-05T01:41:20.267Z,98930.53
2019-01-05T01:44:08.515Z,98930.53
2019-01-05T01:46:57.363Z,98931.91
2019-01-05T01:49:42.624Z,98931.91
2019-01-05T01:52:31.493Z,98931.22
2019-01-05T01:55:19.265Z,98931.22
2019-01-05T01:58:07.984Z,98923.22
2019-01-05T02:00:46.452Z,98915.83
2019-01-05T02:03:25.229Z,98915.83
2019-01-05T02:06:12.522Z,98902.09
2019-01-05T02:12:08.584Z,98893.84
2019-01-05T02:15:02.260Z,98894.66
2019-01-05T02:18:05.018Z,98885.96
2019-01-05T02:21:07.079Z,98889.77
2019-01-05T02:24:02.097Z,98884.94
2019-01-05T02:27:08.391Z,98874.63
2019-01-05T02:30:16.133Z,98877.40
2019-01-05T02:33:14.535Z,98873.48
2019-01-05T02:36:16.618Z,98880.37
2019-01-05T02:39:25.673Z,98874.86
2019-01-05T02:42:30.062Z,98873.48
2019-01-05T02:45:56.785Z,98872.09
2019-01-05T02:48:59.015Z,98872.09
2019-01-05T02:52:23.944Z,98865.23
2019-01-05T02:55:38.891Z,98864.55
2019-01-05T02:58:50.268Z,98864.55
2019-01-05T03:02:06.057Z,98852.27
2019-01-05T03:05:25.299Z,98852.59
2019-01-05T03:08:36.501Z,98850.19
2019-01-05T03:11:42.407Z,98851.17
2019-01-05T03:14:52.195Z,98851.17
2019-01-05T03:18:09.664Z,98839.59
2019-01-05T03:21:24.131Z,98829.66
2019-01-05T03:24:27.504Z,98825.63
2019-01-05T03:27:41.575Z,98825.63
2019-01-05T03:30:52.737Z,98803.80
2019-01-05T03:34:10.926Z,98790.25
2019-01-05T03:37:16.683Z,98783.41
2019-01-05T03:40:42.260Z,98783.41
2019-01-05T03:43:42.898Z,98792.73
2019-01-05T03:46:58.533Z,98790.30
2019-01-05T03:50:05.318Z,98802.42
2019-01-05T03:53:20.555Z,98787.44
2019-01-05T03:56:25.586Z,98784.64
2019-01-05T03:59:50.350Z,98784.59
2019-01-05T04:03:13.604Z,98782.67
2019-01-05T04:06:14.018Z,98782.67
2019-01-05T04:09:22.438Z,98774.13
2019-01-05T04:12:48.788Z,98758.69
2019-01-05T04:15:58.326Z,98758.69
2019-01-05T04:19:16.684Z,98749.78
2019-01-05T04:22:29.026Z,98741.41
2019-01-05T04:25:49.432Z,98741.41
2019-01-05T04:29:14.822Z,98738.38
2019-01-05T04:32:15.213Z,98732.96
2019-01-05T04:35:28.708Z,98732.13
2019-01-05T04:38:33.750Z,98732.13
2019-01-05T04:41:47.843Z,98724.48
2019-01-05T04:44:51.077Z,98720.23
2019-01-05T04:47:44.691Z,98711.88
2019-01-05T04:50:44.850Z,98711.99
2019-01-05T04:54:11.578Z,98711.99
2019-01-05T04:57:24.019Z,98712.75
2019-01-05T05:00:33.841Z,98699.42
2019-01-05T05:03:33.470Z,98699.42
2019-01-05T05:06:51.421Z,98693.96
2019-01-05T05:09:55.145Z,98682.83
2019-01-05T05:13:02.668Z,98682.83
2019-01-05T05:16:12.792Z,98684.95
2019-01-05T05:19:25.014Z,98689.52
2019-01-05T05:22:36.299Z,98689.52
2019-01-05T05:25:48.043Z,98688.25
2019-01-05T05:29:14.380Z,98685.13
2019-01-05T05:32:36.667Z,98679.11
2019-01-05T05:35:37.423Z,98679.83
2019-01-05T05:38:47.367Z,98681.77
2019-01-05T05:42:13.704Z,98683.86
2019-01-05T05:45:40.416Z,98675.13
2019-01-05T05:49:06.755Z,98675.13
2019-01-05T05:52:19.564Z,98668.34
2019-01-05T05:55:39.989Z,98661.58
2019-01-05T05:59:03.869Z,98658.29
2019-01-05T06:02:18.779Z,98668.55
2019-01-05T06:05:36.843Z,98667.23
2019-01-05T06:08:47.680Z,98660.78
2019-01-05T06:12:00.481Z,98666.03
2019-01-05T06:15:16.792Z,98664.64
2019-01-05T06:18:32.454Z,98664.64
2019-01-05T06:21:54.183Z,98658.29
2019-01-05T06:25:02.470Z,98658.24
2019-01-05T06:28:17.231Z,98656.72
2019-01-05T06:31:38.871Z,98661.91
2019-01-05T06:34:54.920Z,98650.42
2019-01-05T06:37:55.502Z,98660.02
2019-01-05T06:41:08.067Z,98655.44
2019-01-05T06:44:26.656Z,98650.06
2019-01-05T06:47:37.344Z,98650.06
2019-01-05T06:51:04.208Z,98655.95
2019-01-05T06:54:05.044Z,98658.37
2019-01-05T06:57:22.840Z,98652.77
2019-01-05T07:00:34.830Z,98652.20
2019-01-05T07:03:51.110Z,98657.22
2019-01-05T07:07:03.798Z,98662.00
2019-01-05T07:10:11.322Z,98664.25
2019-01-05T07:13:18.548Z,98668.00
2019-01-05T07:16:38.993Z,98668.00
2019-01-05T07:19:59.674Z,98688.85
2019-01-05T07:23:09.814Z,98691.78
2019-01-05T07:26:36.159Z,98696.58
2019-01-05T07:30:02.917Z,98696.42
2019-01-05T07:33:17.383Z,98696.42
2019-01-05T07:36:28.947Z,98694.62
2019-01-05T07:39:47.959Z,98698.15
2019-01-05T07:43:01.371Z,98705.72
2019-01-05T07:46:17.847Z,98692.84
2019-01-05T07:49:41.751Z,98719.16
2019-01-05T07:52:50.634Z,98719.16
2019-01-05T07:56:11.359Z,98713.55
2019-01-05T07:59:31.093Z,98713.55
2019-01-05T08:02:47.794Z,98712.11
2019-01-05T08:06:04.389Z,98722.45
2019-01-05T08:09:20.405Z,98701.55
2019-01-05T08:12:46.099Z,98697.11
2019-01-05T08:15:56.475Z,98697.11
2019-01-05T08:19:15.404Z,98701.55
2019-01-05T08:22:29.326Z,98702.48
2019-01-05T08:25:52.219Z,98689.37
2019-01-05T08:29:18.873Z,98689.37
2019-01-05T08:32:45.201Z,98710.80
2019-01-05T08:35:57.181Z,98704.90
2019-01-05T08:39:23.501Z,98704.90
2019-01-05T08:42:50.295Z,98722.22
2019-01-05T08:46:13.068Z,98708.82
2019-01-05T08:49:29.070Z,98716.97
2019-01-05T08:52:31.349Z,98729.78
2019-01-05T08:55:56.208Z,98714.32
2019-01-05T08:59:04.254Z,98709.53
2019-01-05T09:02:30.950Z,98715.58
2019-01-05T09:05:48.168Z,98717.25
2019-01-05T09:08:48.345Z,98717.25
2019-01-05T09:11:55.255Z,98717.77
2019-01-05T09:15:08.586Z,98720.03
2019-01-05T09:18:17.913Z,98697.70
2019-01-05T09:21:23.543Z,98704.74
2019-01-05T09:24:37.917Z,98713.45
2019-01-05T09:27:51.042Z,98713.45
2019-01-05T09:31:15.000Z,98722.34
2019-01-05T09:34:34.473Z,98722.34
2019-01-05T09:38:00.816Z,98719.80
2019-01-05T09:41:22.793Z,98721.01
2019-01-05T09:44:37.085Z,98708.70
2019-01-05T09:47:46.670Z,98726.32
2019-01-05T09:51:13.048Z,98726.32
2019-01-05T09:54:35.953Z,98719.73
2019-01-05T09:57:48.148Z,98718.23
2019-01-05T10:01:04.812Z,98724.41
2019-01-05T10:04:06.869Z,98724.41
2019-01-05T10:07:22.963Z,98719.49
2019-01-05T10:10:29.831Z,98713.84
2019-01-05T10:13:48.062Z,98713.84
2019-01-05T10:16:56.849Z,98708.53
2019-01-05T10:20:11.997Z,98709.86
2019-01-05T10:23:31.447Z,98709.86
2019-01-05T10:26:50.117Z,98705.19
2019-01-05T10:29:59.488Z,98704.90
2019-01-05T10:33:15.911Z,98693.17
2019-01-05T10:36:29.358Z,98697.64
2019-01-05T10:39:43.097Z,98689.94
2019-01-05T10:42:54.663Z,98698.61
2019-01-05T10:46:07.119Z,98697.97
2019-01-05T10:49:22.539Z,98697.97
2019-01-05T10:52:36.528Z,98716.62
2019-01-05T10:55:53.593Z,98691.51
2019-01-05T10:59:04.164Z,98691.51
2019-01-05T11:02:09.387Z,98680.69
2019-01-05T11:05:28.434Z,98686.66
2019-01-05T11:08:38.863Z,98686.66
2019-01-05T11:11:46.109Z,98684.01
2019-01-05T11:15:09.446Z,98680.82
2019-01-05T11:18:27.596Z,98681.27
2019-01-05T11:21:41.424Z,98681.27
2019-01-05T11:25:01.928Z,98684.87
2019-01-05T11:28:12.062Z,98677.11
2019-01-05T11:31:26.622Z,98672.43
2019-01-05T11:34:42.407Z,98675.62
2019-01-05T11:37:58.381Z,98675.72
2019-01-05T11:41:03.441Z,98658.31
2019-01-05T11:44:26.994Z,98658.31
2019-01-05T11:47:33.834Z,98665.53
2019-01-05T11:50:59.496Z,98665.53
2019-01-05T11:54:26.311Z,98670.34
2019-01-05T11:57:45.236Z,98663.56
2019-01-05T12:01:03.914Z,98653.70
2019-01-05T12:04:24.142Z,98656.86
2019-01-05T12:07:33.513Z,98656.86
2019-01-05T12:10:55.241Z,98654.37
2019-01-05T12:14:23.407Z,98643.61
2019-01-05T12:17:49.800Z,98665.95
2019-01-05T12:21:03.444Z,98657.89
2019-01-05T12:24:25.027Z,98643.74
2019-01-05T12:27:46.546Z,98643.74
2019-01-05T12:31:07.555Z,98641.89
2019-01-05T12:34:16.833Z,98647.93
2019-01-05T12:37:29.177Z,98648.52
2019-01-05T12:40:37.401Z,98648.52
2019-01-05T12:43:49.621Z,98643.78
2019-01-05T12:47:10.840Z,98636.77
2019-01-05T12:50:22.640Z,98636.77
2019-01-05T12:53:49.379Z,98635.80
2019-01-05T12:57:00.767Z,98626.91
2019-01-05T13:00:22.369Z,98635.67
2019-01-05T13:03:46.412Z,98637.70
2019-01-05T13:07:08.046Z,98644.17
2019-01-05T13:10:23.330Z,98643.58
2019-01-05T13:13:39.716Z,98643.58
2019-01-05T13:17:05.448Z,98638.46
2019-01-05T13:20:16.436Z,98638.46
2019-01-05T13:23:25.785Z,98650.81
2019-01-05T13:26:36.488Z,98650.81
2019-01-05T13:30:03.037Z,98657.73
2019-01-05T13:33:18.601Z,98663.37
2019-01-05T13:36:22.741Z,98663.37
2019-01-05T13:39:27.429Z,98659.68
2019-01-05T13:42:42.213Z,98665.42
2019-01-05T13:46:01.085Z,98664.43
2019-01-05T13:49:26.418Z,98664.43
2019-01-05T13:52:33.006Z,98674.77
2019-01-05T13:55:21.840Z,98671.38
2019-01-05T13:58:22.947Z,98669.02
2019-01-05T14:01:07.763Z,98656.39
2019-01-05T14:03:55.876Z,98673.37
2019-01-05T14:06:45.079Z,98679.57
2019-01-05T14:09:29.947Z,98679.57
2019-01-05T14:12:18.623Z,98696.75
2019-01-05T14:15:07.300Z,98709.53
2019-01-05T14:17:56.269Z,98698.50
2019-01-05T14:20:44.445Z,98698.50
2019-01-05T14:23:34.584Z,98704.62
2019-01-05T14:26:24.240Z,98704.62
2019-01-05T14:29:11.643Z,98712.48
2019-01-05T14:32:00.879Z,98714.51
2019-01-05T14:34:50.136Z,98708.98
2019-01-05T14:37:38.308Z,98711.94
2019-01-05T14:40:27.280Z,98711.94
2019-01-05T14:43:10.984Z,98724.20
2019-01-05T14:45:59.089Z,98708.52
2019-01-05T14:48:47.679Z,98708.52
2019-01-05T14:51:53.948Z,98707.36
2019-01-05T14:54:42.569Z,98727.62
2019-01-05T14:57:31.905Z,98719.80
2019-01-05T15:00:20.268Z,98731.39
2019-01-05T15:03:03.730Z,98722.32
2019-01-05T15:05:53.279Z,98727.87
2019-01-05T15:08:41.851Z,98717.83
2019-01-05T15:11:30.898Z,98726.31
2019-01-05T15:14:14.440Z,98723.42
2019-01-05T15:17:03.039Z,98723.42
2019-01-05T15:19:51.169Z,98720.66
2019-01-05T15:22:39.936Z,98725.63
2019-01-05T15:25:28.055Z,98732.22
2019-01-05T15:28:16.793Z,98731.50
2019-01-05T15:31:22.666Z,98727.31
2019-01-05T15:34:10.077Z,98731.75
2019-01-05T15:36:57.165Z,98731.75
2019-01-05T15:39:45.633Z,98754.73
2019-01-05T15:42:33.910Z,98738.95
2019-01-05T15:45:22.326Z,98744.73
2019-01-05T15:48:05.100Z,98744.73
2019-01-05T15:50:55.981Z,98744.52
2019-01-05T15:53:44.504Z,98739.02
2019-01-05T15:56:32.621Z,98739.02
2019-01-05T15:59:21.037Z,98757.78
2019-01-05T16:02:09.379Z,98735.91
2019-01-05T16:04:57.958Z,98735.91
2019-01-05T16:07:45.968Z,98740.07
2019-01-05T16:10:34.789Z,98740.07
2019-01-05T16:13:23.130Z,98736.43
2019-01-05T16:16:11.668Z,98746.52
2019-01-05T16:18:59.885Z,98746.52
2019-01-05T16:21:59.636Z,98752.17
2019-01-05T16:24:47.714Z,98749.58
2019-01-05T16:27:36.265Z,98757.85
2019-01-05T16:30:23.945Z,98762.80
2019-01-05T16:36:17.062Z,98768.63
2019-01-05T16:39:00.224Z,98770.54
2019-01-05T16:41:48.315Z,98757.08
2019-01-05T16:44:37.027Z,98757.08
2019-01-05T16:47:25.301Z,98759.52
2019-01-05T16:50:11.641Z,98766.21
2019-01-05T16:52:59.868Z,98766.21
2019-01-05T16:55:48.641Z,98764.42
2019-01-05T16:58:32.985Z,98764.42
2019-01-05T17:01:22.711Z,98766.68
2019-01-05T17:04:10.951Z,98765.97
2019-01-05T17:06:59.459Z,98773.93
2019-01-05T17:09:47.558Z,98767.23
2019-01-05T17:12:35.163Z,98767.23
2019-01-05T17:15:17.922Z,98762.58
2019-01-05T17:18:06.299Z,98765.91
2019-01-05T17:20:54.919Z,98765.91
2019-01-05T17:23:42.989Z,98767.08
2019-01-05T17:26:26.077Z,98767.08
2019-01-05T17:29:06.265Z,98773.87
2019-01-05T17:31:53.760Z,98770.54
2019-01-05T17:34:42.012Z,98763.31
2019-01-05T17:37:30.709Z,98763.31
2019-01-05T17:40:18.960Z,98767.76
2019-01-05T17:43:02.315Z,98769.14
2019-01-05T17:45:50.748Z,98772.41
2019-01-05T17:48:40.790Z,98757.81
2019-01-05T17:51:27.273Z,98757.81
2019-01-05T17:54:15.860Z,98770.59
2019-01-05T17:57:04.043Z,98782.36
2019-01-05T17:59:50.929Z,98775.38
2019-01-05T18:02:38.960Z,98775.38
2019-01-05T18:05:24.318Z,98774.39
2019-01-05T18:08:12.581Z,98774.39
2019-01-05T18:11:01.093Z,98773.34
2019-01-05T18:13:49.192Z,98773.34
2019-01-05T18:16:42.078Z,98766.62
2019-01-05T18:19:24.453Z,98782.36
2019-01-05T18:22:08.571Z,98782.36
2019-01-05T18:24:57.566Z,98785.94
2019-01-05T18:27:46.177Z,98770.59
2019-01-05T18:30:34.263Z,98770.59
2019-01-05T18:33:19.299Z,98770.02
2019-01-05T18:36:07.397Z,98777.70
2019-01-05T18:38:55.445Z,98768.63
2019-01-05T18:41:43.970Z,98777.72
2019-01-05T18:44:23.358Z,98767.23
2019-01-05T18:47:12.287Z,98767.23
2019-01-05T18:49:59.533Z,98772.33
2019-01-05T18:52:47.694Z,98765.56
2019-01-05T18:55:36.958Z,98764.52
2019-01-05T18:58:24.142Z,98764.70
2019-01-05T19:01:12.567Z,98764.70
2019-01-05T19:03:54.078Z,98758.00
2019-01-05T19:06:42.142Z,98758.00
2019-01-05T19:09:30.370Z,98763.50
2019-01-05T19:12:18.476Z,98771.06
2019-01-05T19:15:04.040Z,98771.06
2019-01-05T19:17:52.144Z,98769.77
2019-01-05T19:20:41.834Z,98766.88
2019-01-05T19:23:26.980Z,98766.88
2019-01-05T19:26:11.813Z,98770.86
2019-01-05T19:28:54.052Z,98779.28
2019-01-05T19:31:35.810Z,98771.94
2019-01-05T19:34:20.540Z,98771.94
2019-01-05T19:37:09.262Z,98781.36
2019-01-05T19:39:57.354Z,98777.04
2019-01-05T19:42:45.944Z,98779.75
2019-01-05T19:45:33.966Z,98779.75
2019-01-05T19:48:21.400Z,98779.23
2019-01-05T19:51:09.596Z,98785.12
2019-01-05T19:53:58.059Z,98784.61
2019-01-05T19:56:44.030Z,98784.61
2019-01-05T19:59:28.349Z,98776.31
2019-01-05T20:02:16.742Z,98784.95
2019-01-05T20:04:58.147Z,98783.01
2019-01-05T20:08:04.265Z,98783.01
2019-01-05T20:10:53.356Z,98789.17
2019-01-05T20:13:35.235Z,98789.17
2019-01-05T20:16:17.077Z,98786.41
2019-01-05T20:19:07.093Z,98794.30
2019-01-05T20:21:54.278Z,98794.30
2019-01-05T20:24:42.151Z,98796.55
2019-01-05T20:27:30.413Z,98795.23
2019-01-05T20:30:29.214Z,98798.22
2019-01-05T20:33:16.031Z,98798.22
2019-01-05T20:36:04.551Z,98797.30
2019-01-05T20:38:51.409Z,98801.12
2019-01-05T20:41:40.268Z,98801.12
2019-01-05T20:44:28.915Z,98807.86
2019-01-05T20:47:17.196Z,98807.86
2019-01-05T20:50:08.749Z,98804.50
2019-01-05T20:52:56.796Z,98800.02
2019-01-05T20:55:45.543Z,98807.52
2019-01-05T20:58:35.456Z,98792.09
2019-01-05T21:01:18.008Z,98797.47
2019-01-05T21:04:05.212Z,98789.66
2019-01-05T21:09:37.472Z,98799.75
2019-01-05T21:12:26.012Z,98798.60
2019-01-05T21:15:32.277Z,98798.60
2019-01-05T21:18:14.443Z,98792.52
2019-01-05T21:21:02.685Z,98789.41
2019-01-05T21:23:51.254Z,98789.41
2019-01-05T21:26:39.351Z,98788.59
2019-01-05T21:29:26.923Z,98778.89
2019-01-05T21:32:15.354Z,98798.73
2019-01-05T21:35:05.970Z,98798.73
2019-01-05T21:41:07.856Z,98790.98
2019-01-05T21:43:55.993Z,98790.98
2019-01-05T21:46:45.575Z,98793.48
2019-01-05T21:49:33.603Z,98793.48
2019-01-05T21:52:23.085Z,98784.13
2019-01-05T21:55:11.163Z,98784.13
2019-01-05T21:57:52.528Z,98781.34
2019-01-05T22:00:40.712Z,98789.44
2019-01-05T22:03:25.918Z,98793.16
2019-01-05T22:06:14.046Z,98793.09
2019-01-05T22:09:03.103Z,98793.09
2019-01-05T22:11:43.818Z,98793.17
2019-01-05T22:14:33.842Z,98783.88
2019-01-05T22:17:21.750Z,98799.25
2019-01-05T22:20:10.361Z,98802.46
2019-01-05T22:22:58.442Z,98802.46
2019-01-05T22:25:46.937Z,98804.63
2019-01-05T22:28:35.252Z,98793.81
2019-01-05T22:31:23.684Z,98791.67
2019-01-05T22:34:05.784Z,98787.86
2019-01-05T22:36:54.228Z,98781.15
2019-01-05T22:39:42.312Z,98781.15
2019-01-05T22:42:30.974Z,98780.48
2019-01-05T22:45:08.381Z,98788.70
2019-01-05T22:47:56.773Z,98788.70
2019-01-05T22:50:44.827Z,98794.16
2019-01-05T22:53:33.185Z,98794.16
2019-01-05T22:56:18.608Z,98800.45
2019-01-05T22:59:05.214Z,98802.11
2019-01-05T23:02:11.332Z,98822.80
2019-01-05T23:05:16.999Z,98802.50
2019-01-05T23:08:05.045Z,98802.50
2019-01-05T23:10:53.461Z,98810.92
2019-01-05T23:13:41.526Z,98807.19
2019-01-05T23:16:29.564Z,98807.19
2019-01-05T23:19:17.984Z,98811.17
2019-01-05T23:22:06.053Z,98811.17
2019-01-05T23:24:47.240Z,98810.57
2019-01-05T23:27:35.295Z,98822.66
2019-01-05T23:30:24.343Z,98812.19
2019-01-05T23:33:12.437Z,98823.73
2019-01-05T23:36:00.844Z,98826.31
2019-01-05T23:38:50.468Z,98822.66
2019-01-05T23:41:37.579Z,98822.57
2019-01-05T23:44:25.673Z,98822.57
2019-01-05T23:47:03.946Z,98824.24
2019-01-05T23:49:44.825Z,98824.24
2019-01-05T23:52:30.140Z,98823.98
2019-01-05T23:55:36.285Z,98827.97
2019-01-05T23:58:42.655Z,98827.97
